sensor_id;sensor_type;location;lat;lon;timestamp;temperature;humidity
49441;DHT22;35317;51.978;6.296;2023-02-04T00:02:15;8.30;99.90
49441;DHT22;35317;51.978;6.296;2023-02-04T00:07:16;8.30;99.90
49441;DHT22;35317;51.978;6.296;2023-02-04T00:12:17;8.30;99.90
49441;DHT22;35317;51.978;6.296;2023-02-04T00:17:18;8.30;99.90
49441;DHT22;35317;51.978;6.296;2023-02-04T00:22:19;8.20;99.90
49441;DHT22;35317;51.978;6.296;2023-02-04T00:27:20;8.20;99.90
49441;DHT22;35317;51.978;6.296;2023-02-04T00:32:21;8.20;99.90
49441;DHT22;35317;51.978;6.296;2023-02-04T00:37:22;8.20;99.90
49441;DHT22;35317;51.978;6.296;2023-02-04T00:42:24;8.30;99.90
49441;DHT22;35317;51.978;6.296;2023-02-04T00:47:25;8.20;99.90
49441;DHT22;35317;51.978;6.296;2023-02-04T00:52:25;8.20;99.90
49441;DHT22;35317;51.978;6.296;2023-02-04T00:57:26;8.30;99.90
49441;DHT22;35317;51.978;6.296;2023-02-04T01:02:27;8.20;99.90
49441;DHT22;35317;51.978;6.296;2023-02-04T01:07:28;8.20;99.90
49441;DHT22;35317;51.978;6.296;2023-02-04T01:12:29;8.20;99.90
49441;DHT22;35317;51.978;6.296;2023-02-04T01:17:29;8.20;99.90
49441;DHT22;35317;51.978;6.296;2023-02-04T01:22:30;8.20;99.90
49441;DHT22;35317;51.978;6.296;2023-02-04T01:27:31;8.10;99.90
49441;DHT22;35317;51.978;6.296;2023-02-04T01:32:32;8.20;99.90
49441;DHT22;35317;51.978;6.296;2023-02-04T01:37:33;8.20;99.90
49441;DHT22;35317;51.978;6.296;2023-02-04T01:42:34;8.10;99.90
49441;DHT22;35317;51.978;6.296;2023-02-04T01:47:35;8.10;99.90
49441;DHT22;35317;51.978;6.296;2023-02-04T01:52:37;8.00;99.90
49441;DHT22;35317;51.978;6.296;2023-02-04T01:57:40;8.00;99.90
49441;DHT22;35317;51.978;6.296;2023-02-04T02:02:47;7.90;99.90
49441;DHT22;35317;51.978;6.296;2023-02-04T02:07:54;7.90;99.90
49441;DHT22;35317;51.978;6.296;2023-02-04T02:12:56;7.80;99.90
49441;DHT22;35317;51.978;6.296;2023-02-04T02:17:57;7.80;99.90
49441;DHT22;35317;51.978;6.296;2023-02-04T02:28:39;7.60;99.90
49441;DHT22;35317;51.978;6.296;2023-02-04T02:33:40;7.50;99.90
49441;DHT22;35317;51.978;6.296;2023-02-04T02:38:41;7.40;99.90
49441;DHT22;35317;51.978;6.296;2023-02-04T02:43:41;7.40;99.90
49441;DHT22;35317;51.978;6.296;2023-02-04T02:48:42;7.40;99.90
49441;DHT22;35317;51.978;6.296;2023-02-04T02:53:44;7.30;99.90
49441;DHT22;35317;51.978;6.296;2023-02-04T02:58:46;7.30;99.90
49441;DHT22;35317;51.978;6.296;2023-02-04T03:03:49;7.20;99.90
49441;DHT22;35317;51.978;6.296;2023-02-04T03:08:52;7.20;99.90
49441;DHT22;35317;51.978;6.296;2023-02-04T03:13:56;7.10;99.90
49441;DHT22;35317;51.978;6.296;2023-02-04T03:18:59;7.10;99.90
49441;DHT22;35317;51.978;6.296;2023-02-04T03:24:01;7.10;99.90
49441;DHT22;35317;51.978;6.296;2023-02-04T03:29:04;7.00;99.90
49441;DHT22;35317;51.978;6.296;2023-02-04T03:34:07;7.00;99.90
49441;DHT22;35317;51.978;6.296;2023-02-04T03:39:07;7.00;99.90
49441;DHT22;35317;51.978;6.296;2023-02-04T03:44:08;7.00;99.90
49441;DHT22;35317;51.978;6.296;2023-02-04T03:49:09;7.00;99.90
49441;DHT22;35317;51.978;6.296;2023-02-04T03:54:10;7.00;99.90
49441;DHT22;35317;51.978;6.296;2023-02-04T03:59:10;7.10;99.90
49441;DHT22;35317;51.978;6.296;2023-02-04T04:04:11;7.10;99.90
49441;DHT22;35317;51.978;6.296;2023-02-04T04:09:12;7.10;99.90
49441;DHT22;35317;51.978;6.296;2023-02-04T04:14:13;7.10;99.90
49441;DHT22;35317;51.978;6.296;2023-02-04T04:19:13;7.20;99.90
49441;DHT22;35317;51.978;6.296;2023-02-04T04:24:14;7.20;99.90
49441;DHT22;35317;51.978;6.296;2023-02-04T04:29:15;7.20;99.90
49441;DHT22;35317;51.978;6.296;2023-02-04T04:34:16;7.20;99.90
49441;DHT22;35317;51.978;6.296;2023-02-04T04:39:16;7.20;99.90
49441;DHT22;35317;51.978;6.296;2023-02-04T04:44:17;7.20;99.90
49441;DHT22;35317;51.978;6.296;2023-02-04T04:49:18;7.20;99.90
49441;DHT22;35317;51.978;6.296;2023-02-04T04:54:19;7.20;99.90
49441;DHT22;35317;51.978;6.296;2023-02-04T04:59:20;7.20;99.90
49441;DHT22;35317;51.978;6.296;2023-02-04T05:04:20;7.20;99.90
49441;DHT22;35317;51.978;6.296;2023-02-04T05:09:21;7.20;99.90
49441;DHT22;35317;51.978;6.296;2023-02-04T05:14:22;7.20;99.90
49441;DHT22;35317;51.978;6.296;2023-02-04T05:19:23;7.20;99.90
49441;DHT22;35317;51.978;6.296;2023-02-04T05:24:23;7.10;99.90
49441;DHT22;35317;51.978;6.296;2023-02-04T05:29:24;7.00;99.90
49441;DHT22;35317;51.978;6.296;2023-02-04T05:34:25;6.90;99.90
49441;DHT22;35317;51.978;6.296;2023-02-04T05:39:26;6.90;99.90
49441;DHT22;35317;51.978;6.296;2023-02-04T05:44:28;6.90;99.90
49441;DHT22;35317;51.978;6.296;2023-02-04T05:49:28;6.80;99.90
49441;DHT22;35317;51.978;6.296;2023-02-04T05:54:29;6.80;99.90
49441;DHT22;35317;51.978;6.296;2023-02-04T05:59:30;6.80;99.90
49441;DHT22;35317;51.978;6.296;2023-02-04T06:04:31;6.80;99.90
49441;DHT22;35317;51.978;6.296;2023-02-04T06:09:31;6.80;99.90
49441;DHT22;35317;51.978;6.296;2023-02-04T06:14:32;6.80;99.90
49441;DHT22;35317;51.978;6.296;2023-02-04T06:19:33;6.80;99.90
49441;DHT22;35317;51.978;6.296;2023-02-04T06:24:33;6.80;99.90
49441;DHT22;35317;51.978;6.296;2023-02-04T06:29:34;6.80;99.90
49441;DHT22;35317;51.978;6.296;2023-02-04T06:34:35;6.80;99.90
49441;DHT22;35317;51.978;6.296;2023-02-04T06:39:36;6.80;99.90
49441;DHT22;35317;51.978;6.296;2023-02-04T06:44:36;6.70;99.90
49441;DHT22;35317;51.978;6.296;2023-02-04T06:49:37;6.80;99.90
49441;DHT22;35317;51.978;6.296;2023-02-04T06:54:38;6.80;99.90
49441;DHT22;35317;51.978;6.296;2023-02-04T06:59:39;6.80;99.90
49441;DHT22;35317;51.978;6.296;2023-02-04T07:04:42;6.80;99.90
49441;DHT22;35317;51.978;6.296;2023-02-04T07:09:43;6.80;99.90
49441;DHT22;35317;51.978;6.296;2023-02-04T07:14:44;6.70;99.90
49441;DHT22;35317;51.978;6.296;2023-02-04T07:19:44;6.70;99.90
49441;DHT22;35317;51.978;6.296;2023-02-04T07:24:45;6.80;99.90
49441;DHT22;35317;51.978;6.296;2023-02-04T07:29:46;6.70;99.90
49441;DHT22;35317;51.978;6.296;2023-02-04T07:34:47;6.70;99.90
49441;DHT22;35317;51.978;6.296;2023-02-04T07:39:48;6.70;99.90
49441;DHT22;35317;51.978;6.296;2023-02-04T07:44:48;6.80;99.90
49441;DHT22;35317;51.978;6.296;2023-02-04T07:49:49;6.80;99.90
49441;DHT22;35317;51.978;6.296;2023-02-04T07:54:50;6.80;99.90
49441;DHT22;35317;51.978;6.296;2023-02-04T07:59:51;6.90;99.90
49441;DHT22;35317;51.978;6.296;2023-02-04T08:04:52;6.90;99.90
49441;DHT22;35317;51.978;6.296;2023-02-04T08:09:53;6.90;99.90
49441;DHT22;35317;51.978;6.296;2023-02-04T08:14:54;7.00;99.90
49441;DHT22;35317;51.978;6.296;2023-02-04T08:19:55;7.10;99.90
49441;DHT22;35317;51.978;6.296;2023-02-04T08:24:56;7.20;99.90
49441;DHT22;35317;51.978;6.296;2023-02-04T08:29:56;7.20;99.90
49441;DHT22;35317;51.978;6.296;2023-02-04T08:34:58;7.30;99.90
49441;DHT22;35317;51.978;6.296;2023-02-04T08:39:59;7.30;99.90
49441;DHT22;35317;51.978;6.296;2023-02-04T08:45:00;7.40;99.90
49441;DHT22;35317;51.978;6.296;2023-02-04T08:50:01;7.50;99.90
49441;DHT22;35317;51.978;6.296;2023-02-04T08:55:02;7.60;99.90
49441;DHT22;35317;51.978;6.296;2023-02-04T09:00:03;7.60;99.90
49441;DHT22;35317;51.978;6.296;2023-02-04T09:05:04;7.80;99.90
49441;DHT22;35317;51.978;6.296;2023-02-04T09:10:05;7.80;99.90
49441;DHT22;35317;51.978;6.296;2023-02-04T09:15:08;7.90;99.90
49441;DHT22;35317;51.978;6.296;2023-02-04T09:20:09;8.10;99.90
49441;DHT22;35317;51.978;6.296;2023-02-04T09:25:11;8.20;99.90
49441;DHT22;35317;51.978;6.296;2023-02-04T09:30:12;8.40;99.90
49441;DHT22;35317;51.978;6.296;2023-02-04T09:35:13;8.50;99.90
49441;DHT22;35317;51.978;6.296;2023-02-04T09:40:16;8.70;99.90
49441;DHT22;35317;51.978;6.296;2023-02-04T09:45:33;8.90;99.90
49441;DHT22;35317;51.978;6.296;2023-02-04T09:50:34;9.00;99.90
49441;DHT22;35317;51.978;6.296;2023-02-04T09:55:38;9.10;99.90
49441;DHT22;35317;51.978;6.296;2023-02-04T10:00:39;9.00;99.90
49441;DHT22;35317;51.978;6.296;2023-02-04T10:05:40;9.00;99.90
49441;DHT22;35317;51.978;6.296;2023-02-04T10:10:41;9.10;99.90
49441;DHT22;35317;51.978;6.296;2023-02-04T10:15:44;9.20;99.90
49441;DHT22;35317;51.978;6.296;2023-02-04T10:20:46;9.20;99.90
49441;DHT22;35317;51.978;6.296;2023-02-04T10:25:46;9.40;99.90
49441;DHT22;35317;51.978;6.296;2023-02-04T10:30:47;9.50;99.90
49441;DHT22;35317;51.978;6.296;2023-02-04T10:35:51;9.60;99.90
49441;DHT22;35317;51.978;6.296;2023-02-04T10:41:00;9.70;99.90
49441;DHT22;35317;51.978;6.296;2023-02-04T10:46:02;9.80;99.90
49441;DHT22;35317;51.978;6.296;2023-02-04T10:51:04;9.90;99.90
49441;DHT22;35317;51.978;6.296;2023-02-04T10:56:16;10.10;99.90
49441;DHT22;35317;51.978;6.296;2023-02-04T11:01:18;10.20;99.90
49441;DHT22;35317;51.978;6.296;2023-02-04T11:06:21;10.30;99.90
49441;DHT22;35317;51.978;6.296;2023-02-04T11:11:24;10.30;99.90
49441;DHT22;35317;51.978;6.296;2023-02-04T11:16:33;10.50;99.90
49441;DHT22;35317;51.978;6.296;2023-02-04T11:26:37;10.70;99.90
49441;DHT22;35317;51.978;6.296;2023-02-04T11:31:44;10.80;99.90
49441;DHT22;35317;51.978;6.296;2023-02-04T11:42:00;11.20;99.90
49441;DHT22;35317;51.978;6.296;2023-02-04T11:47:06;11.20;99.90
49441;DHT22;35317;51.978;6.296;2023-02-04T11:52:12;11.20;99.90
49441;DHT22;35317;51.978;6.296;2023-02-04T11:57:13;11.20;99.70
49441;DHT22;35317;51.978;6.296;2023-02-04T12:02:20;11.20;99.60
49441;DHT22;35317;51.978;6.296;2023-02-04T12:07:29;11.20;99.50
49441;DHT22;35317;51.978;6.296;2023-02-04T12:12:30;11.30;99.10
49441;DHT22;35317;51.978;6.296;2023-02-04T12:17:30;11.40;98.70
49441;DHT22;35317;51.978;6.296;2023-02-04T12:22:31;11.30;98.20
49441;DHT22;35317;51.978;6.296;2023-02-04T12:27:32;11.20;98.10
49441;DHT22;35317;51.978;6.296;2023-02-04T12:32:33;11.20;98.20
49441;DHT22;35317;51.978;6.296;2023-02-04T12:37:33;11.20;97.90
49441;DHT22;35317;51.978;6.296;2023-02-04T12:42:34;11.30;97.80
49441;DHT22;35317;51.978;6.296;2023-02-04T12:47:35;11.40;97.10
49441;DHT22;35317;51.978;6.296;2023-02-04T12:52:36;11.40;96.90
49441;DHT22;35317;51.978;6.296;2023-02-04T12:57:38;11.20;96.60
49441;DHT22;35317;51.978;6.296;2023-02-04T13:02:39;11.20;96.60
49441;DHT22;35317;51.978;6.296;2023-02-04T13:07:40;11.20;96.40
49441;DHT22;35317;51.978;6.296;2023-02-04T13:12:41;11.20;96.10
49441;DHT22;35317;51.978;6.296;2023-02-04T13:17:42;11.20;95.70
49441;DHT22;35317;51.978;6.296;2023-02-04T13:22:42;11.30;95.40
49441;DHT22;35317;51.978;6.296;2023-02-04T13:27:43;11.40;95.40
49441;DHT22;35317;51.978;6.296;2023-02-04T13:32:44;11.40;95.40
49441;DHT22;35317;51.978;6.296;2023-02-04T13:37:45;11.40;95.10
49441;DHT22;35317;51.978;6.296;2023-02-04T13:42:45;11.40;94.70
49441;DHT22;35317;51.978;6.296;2023-02-04T13:47:46;11.40;94.50
49441;DHT22;35317;51.978;6.296;2023-02-04T13:52:48;11.30;94.40
49441;DHT22;35317;51.978;6.296;2023-02-04T13:57:49;11.40;94.30
49441;DHT22;35317;51.978;6.296;2023-02-04T14:02:49;11.60;94.20
49441;DHT22;35317;51.978;6.296;2023-02-04T14:07:50;11.60;94.00
49441;DHT22;35317;51.978;6.296;2023-02-04T14:12:53;11.60;93.10
49441;DHT22;35317;51.978;6.296;2023-02-04T14:17:54;11.50;92.90
49441;DHT22;35317;51.978;6.296;2023-02-04T14:22:55;11.40;92.60
49441;DHT22;35317;51.978;6.296;2023-02-04T14:27:56;11.40;92.50
49441;DHT22;35317;51.978;6.296;2023-02-04T14:32:58;11.40;92.40
49441;DHT22;35317;51.978;6.296;2023-02-04T14:37:59;11.50;92.00
49441;DHT22;35317;51.978;6.296;2023-02-04T14:42:59;11.50;92.00
49441;DHT22;35317;51.978;6.296;2023-02-04T14:48:00;11.50;91.70
49441;DHT22;35317;51.978;6.296;2023-02-04T14:53:02;11.60;91.50
49441;DHT22;35317;51.978;6.296;2023-02-04T14:58:02;11.60;91.20
49441;DHT22;35317;51.978;6.296;2023-02-04T15:03:03;11.60;91.30
49441;DHT22;35317;51.978;6.296;2023-02-04T15:08:04;11.70;91.50
49441;DHT22;35317;51.978;6.296;2023-02-04T15:13:05;11.60;91.30
49441;DHT22;35317;51.978;6.296;2023-02-04T15:18:06;11.60;91.10
49441;DHT22;35317;51.978;6.296;2023-02-04T15:23:06;11.50;91.10
49441;DHT22;35317;51.978;6.296;2023-02-04T15:28:07;11.40;91.00
49441;DHT22;35317;51.978;6.296;2023-02-04T15:33:08;11.40;91.00
49441;DHT22;35317;51.978;6.296;2023-02-04T15:38:10;11.30;90.90
49441;DHT22;35317;51.978;6.296;2023-02-04T15:43:11;11.20;90.80
49441;DHT22;35317;51.978;6.296;2023-02-04T15:48:12;11.20;91.00
49441;DHT22;35317;51.978;6.296;2023-02-04T15:53:13;11.00;91.60
49441;DHT22;35317;51.978;6.296;2023-02-04T15:58:14;10.90;91.40
49441;DHT22;35317;51.978;6.296;2023-02-04T16:03:15;10.70;91.40
49441;DHT22;35317;51.978;6.296;2023-02-04T16:08:15;10.60;91.50
49441;DHT22;35317;51.978;6.296;2023-02-04T16:13:16;10.50;92.40
49441;DHT22;35317;51.978;6.296;2023-02-04T16:18:17;10.40;92.60
49441;DHT22;35317;51.978;6.296;2023-02-04T16:23:18;10.20;92.60
49441;DHT22;35317;51.978;6.296;2023-02-04T16:28:18;10.10;92.70
49441;DHT22;35317;51.978;6.296;2023-02-04T16:33:19;10.10;92.80
49441;DHT22;35317;51.978;6.296;2023-02-04T16:38:20;9.90;93.00
49441;DHT22;35317;51.978;6.296;2023-02-04T16:43:21;9.90;93.40
49441;DHT22;35317;51.978;6.296;2023-02-04T16:48:23;9.80;93.50
49441;DHT22;35317;51.978;6.296;2023-02-04T16:53:24;9.80;93.70
49441;DHT22;35317;51.978;6.296;2023-02-04T16:58:24;9.70;93.90
49441;DHT22;35317;51.978;6.296;2023-02-04T17:03:25;9.70;94.20
49441;DHT22;35317;51.978;6.296;2023-02-04T17:08:27;9.70;94.40
49441;DHT22;35317;51.978;6.296;2023-02-04T17:13:28;9.60;94.70
49441;DHT22;35317;51.978;6.296;2023-02-04T17:18:30;9.60;95.00
49441;DHT22;35317;51.978;6.296;2023-02-04T17:23:31;9.60;95.10
49441;DHT22;35317;51.978;6.296;2023-02-04T17:28:32;9.50;95.20
49441;DHT22;35317;51.978;6.296;2023-02-04T17:33:33;9.50;95.30
49441;DHT22;35317;51.978;6.296;2023-02-04T17:38:34;9.50;95.40
49441;DHT22;35317;51.978;6.296;2023-02-04T17:43:35;9.50;95.50
49441;DHT22;35317;51.978;6.296;2023-02-04T17:48:36;9.40;95.60
49441;DHT22;35317;51.978;6.296;2023-02-04T17:53:37;9.40;95.70
49441;DHT22;35317;51.978;6.296;2023-02-04T17:58:40;9.40;95.90
49441;DHT22;35317;51.978;6.296;2023-02-04T18:03:41;9.40;96.00
49441;DHT22;35317;51.978;6.296;2023-02-04T18:08:42;9.40;96.00
49441;DHT22;35317;51.978;6.296;2023-02-04T18:13:43;9.40;96.30
49441;DHT22;35317;51.978;6.296;2023-02-04T18:18:44;9.30;96.00
49441;DHT22;35317;51.978;6.296;2023-02-04T18:23:45;9.30;96.10
49441;DHT22;35317;51.978;6.296;2023-02-04T18:28:47;9.30;96.30
49441;DHT22;35317;51.978;6.296;2023-02-04T18:33:48;9.30;96.50
49441;DHT22;35317;51.978;6.296;2023-02-04T18:38:49;9.20;96.70
49441;DHT22;35317;51.978;6.296;2023-02-04T18:43:59;9.20;96.90
49441;DHT22;35317;51.978;6.296;2023-02-04T18:54:38;9.10;97.10
49441;DHT22;35317;51.978;6.296;2023-02-04T18:59:41;9.00;97.20
49441;DHT22;35317;51.978;6.296;2023-02-04T19:04:43;8.90;97.40
49441;DHT22;35317;51.978;6.296;2023-02-04T19:09:44;8.80;97.60
49441;DHT22;35317;51.978;6.296;2023-02-04T19:14:45;8.70;97.80
49441;DHT22;35317;51.978;6.296;2023-02-04T19:19:58;8.70;98.00
49441;DHT22;35317;51.978;6.296;2023-02-04T19:35:39;8.40;98.70
49441;DHT22;35317;51.978;6.296;2023-02-04T19:40:41;8.30;98.90
49441;DHT22;35317;51.978;6.296;2023-02-04T19:45:44;8.30;99.10
49441;DHT22;35317;51.978;6.296;2023-02-04T19:50:45;8.30;99.30
49441;DHT22;35317;51.978;6.296;2023-02-04T19:55:50;8.30;99.40
49441;DHT22;35317;51.978;6.296;2023-02-04T20:01:03;8.20;99.60
49441;DHT22;35317;51.978;6.296;2023-02-04T20:06:22;8.30;99.80
49441;DHT22;35317;51.978;6.296;2023-02-04T20:11:33;8.30;99.90
49441;DHT22;35317;51.978;6.296;2023-02-04T20:32:45;8.30;99.90
49441;DHT22;35317;51.978;6.296;2023-02-04T20:37:58;8.30;99.90
49441;DHT22;35317;51.978;6.296;2023-02-04T20:43:02;8.30;99.90
49441;DHT22;35317;51.978;6.296;2023-02-04T20:53:22;8.30;99.90
49441;DHT22;35317;51.978;6.296;2023-02-04T20:58:37;8.20;99.90
49441;DHT22;35317;51.978;6.296;2023-02-04T21:03:39;8.20;99.90
49441;DHT22;35317;51.978;6.296;2023-02-04T21:08:42;8.20;99.90
49441;DHT22;35317;51.978;6.296;2023-02-04T21:13:44;8.10;99.90
49441;DHT22;35317;51.978;6.296;2023-02-04T21:18:45;8.10;99.90
49441;DHT22;35317;51.978;6.296;2023-02-04T21:23:46;8.10;99.90
49441;DHT22;35317;51.978;6.296;2023-02-04T21:28:47;8.10;99.90
49441;DHT22;35317;51.978;6.296;2023-02-04T21:33:48;8.00;99.90
49441;DHT22;35317;51.978;6.296;2023-02-04T21:38:49;8.10;99.90
49441;DHT22;35317;51.978;6.296;2023-02-04T21:43:50;8.10;99.90
49441;DHT22;35317;51.978;6.296;2023-02-04T21:48:51;8.10;99.90
49441;DHT22;35317;51.978;6.296;2023-02-04T21:53:52;8.10;99.90
49441;DHT22;35317;51.978;6.296;2023-02-04T21:58:52;8.10;99.90
49441;DHT22;35317;51.978;6.296;2023-02-04T22:03:53;8.00;99.90
49441;DHT22;35317;51.978;6.296;2023-02-04T22:08:54;8.00;99.90
49441;DHT22;35317;51.978;6.296;2023-02-04T22:13:55;8.00;99.90
49441;DHT22;35317;51.978;6.296;2023-02-04T22:19:14;7.90;99.90
49441;DHT22;35317;51.978;6.296;2023-02-04T22:24:15;7.90;99.90
49441;DHT22;35317;51.978;6.296;2023-02-04T22:29:16;7.90;99.90
49441;DHT22;35317;51.978;6.296;2023-02-04T22:34:22;7.90;99.90
49441;DHT22;35317;51.978;6.296;2023-02-04T22:39:24;7.80;99.90
49441;DHT22;35317;51.978;6.296;2023-02-04T22:44:25;7.80;99.90
49441;DHT22;35317;51.978;6.296;2023-02-04T22:49:26;7.80;99.90
49441;DHT22;35317;51.978;6.296;2023-02-04T22:54:27;7.80;99.90
49441;DHT22;35317;51.978;6.296;2023-02-04T22:59:27;7.80;99.90
49441;DHT22;35317;51.978;6.296;2023-02-04T23:04:28;7.70;99.90
49441;DHT22;35317;51.978;6.296;2023-02-04T23:09:31;7.70;99.90
49441;DHT22;35317;51.978;6.296;2023-02-04T23:14:32;7.70;99.90
49441;DHT22;35317;51.978;6.296;2023-02-04T23:19:32;7.70;99.90
49441;DHT22;35317;51.978;6.296;2023-02-04T23:24:34;7.70;99.90
49441;DHT22;35317;51.978;6.296;2023-02-04T23:29:35;7.70;99.90
49441;DHT22;35317;51.978;6.296;2023-02-04T23:34:36;7.70;99.90
49441;DHT22;35317;51.978;6.296;2023-02-04T23:39:37;7.70;99.90
49441;DHT22;35317;51.978;6.296;2023-02-04T23:44:38;7.70;99.90
49441;DHT22;35317;51.978;6.296;2023-02-04T23:49:38;7.70;99.90
49441;DHT22;35317;51.978;6.296;2023-02-04T23:54:39;7.60;99.90
49441;DHT22;35317;51.978;6.296;2023-02-04T23:59:41;7.60;99.90
